Time;durP1;ratioP1;P1;durP2;ratioP2;P2;SDS_P1;SDS_P2;PMS_P1;PMS_P2;Temp;Humidity;BMP_temperature;BMP_pressure;BME280_temperature;BME280_humidity;BME280_pressure;Samples;Min_cycle;Max_cycle;Signal;HPM_P1;HPM_P2
2022/12/14 00:08:44;;;;;;;43.7;29.2;;;;;;;-10;83.4;98450;;;;
2022/12/14 00:19:44;;;;;;;46.7;32.1;;;;;;;-10.2;83.4;98450;;;;
2022/12/14 00:29:44;;;;;;;46.7;32.1;;;;;;;-10.3;83.5;98450;;;;
2022/12/14 00:40:44;;;;;;;46.7;32.1;;;;;;;-10.5;84.1;98440;;;;
2022/12/14 00:51:44;;;;;;;55;34.3;;;;;;;-10.6;84.1;98450;;;;
2022/12/14 01:01:44;;;;;;;55;34.3;;;;;;;-10.6;84.5;98440;;;;
2022/12/14 01:11:44;;;;;;;55;34.3;;;;;;;-10.6;84.5;98440;;;;
2022/12/14 01:21:44;;;;;;;53;30.2;;;;;;;-10.8;84.1;98440;;;;
2022/12/14 01:32:45;;;;;;;53;30.2;;;;;;;-10.8;84.2;98420;;;;
2022/12/14 01:42:44;;;;;;;53;30.2;;;;;;;-10.8;84.4;98410;;;;
2022/12/14 01:53:44;;;;;;;60.1;35.1;;;;;;;-11;83.8;98410;;;;
2022/12/14 02:04:44;;;;;;;60.1;35.1;;;;;;;-11.1;83.4;98400;;;;
2022/12/14 02:14:44;;;;;;;60.1;35.1;;;;;;;-11.2;83.1;98400;;;;
2022/12/14 02:25:44;;;;;;;49.8;29.6;;;;;;;-11.2;82.9;98400;;;;
2022/12/14 02:36:44;;;;;;;49.8;29.6;;;;;;;-11.2;82.5;98390;;;;
2022/12/14 02:46:44;;;;;;;49.8;29.6;;;;;;;-11.4;82;98380;;;;
2022/12/14 02:57:44;;;;;;;58.1;31.7;;;;;;;-11.4;81.8;98370;;;;
2022/12/14 03:08:44;;;;;;;58.1;31.7;;;;;;;-11.4;81.5;98370;;;;
2022/12/14 03:18:44;;;;;;;59.6;35.4;;;;;;;-11.3;81.3;98380;;;;
2022/12/14 03:29:44;;;;;;;59.6;35.4;;;;;;;-11.3;81.3;98370;;;;
2022/12/14 03:39:44;;;;;;;59.6;35.4;;;;;;;-11.3;81.1;98370;;;;
2022/12/14 03:50:44;;;;;;;56.2;34.1;;;;;;;-11.2;81.2;98350;;;;
2022/12/14 04:01:45;;;;;;;56.2;34.1;;;;;;;-11;81;98350;;;;
2022/12/14 04:21:44;;;;;;;50.4;31.8;;;;;;;-10.8;80.7;98340;;;;
2022/12/14 04:32:44;;;;;;;50.4;31.8;;;;;;;-10.6;80.9;98340;;;;
2022/12/14 04:42:44;;;;;;;50.4;31.8;;;;;;;-10.3;81;98330;;;;
2022/12/14 04:53:44;;;;;;;61;38.3;;;;;;;-10.2;80.9;98330;;;;
2022/12/14 05:04:53;;;;;;;61;38.3;;;;;;;-10.3;80.6;98310;;;;
2022/12/14 05:15:44;;;;;;;61;38.3;;;;;;;-10.1;81;98300;;;;
2022/12/14 05:26:44;;;;;;;59.9;33;;;;;;;-10;80.7;98280;;;;
2022/12/14 05:37:44;;;;;;;59.9;33;;;;;;;-9.9;80.3;98270;;;;
2022/12/14 05:48:44;;;;;;;60;35.3;;;;;;;-10;79.8;98280;;;;
2022/12/14 05:59:44;;;;;;;60;35.3;;;;;;;-10.1;79.8;98270;;;;
2022/12/14 06:09:44;;;;;;;60;35.3;;;;;;;-10;79.7;98270;;;;
2022/12/14 06:19:44;;;;;;;54.8;31.4;;;;;;;-9.9;79;98280;;;;
2022/12/14 06:29:44;;;;;;;54.8;31.4;;;;;;;-10;79.7;98250;;;;
2022/12/14 06:40:44;;;;;;;54.8;31.4;;;;;;;-10;79.9;98250;;;;
2022/12/14 06:50:44;;;;;;;57.8;32.8;;;;;;;-9.6;80.1;98250;;;;
2022/12/14 07:01:44;;;;;;;57.8;32.8;;;;;;;-9.4;79.9;98250;;;;
2022/12/14 07:11:44;;;;;;;57.8;32.8;;;;;;;-9.3;80.2;98240;;;;
2022/12/14 07:21:44;;;;;;;53.5;31.8;;;;;;;-9;80.4;98240;;;;
2022/12/14 07:31:45;;;;;;;53.5;31.8;;;;;;;-8.5;80.7;98240;;;;
2022/12/14 07:42:44;;;;;;;53.5;31.8;;;;;;;-7.9;80.8;98230;;;;
2022/12/14 07:52:44;;;;;;;43;24.4;;;;;;;-7.5;80.8;98220;;;;
2022/12/14 08:03:44;;;;;;;43;24.4;;;;;;;-6.7;81.2;98210;;;;
2022/12/14 08:13:45;;;;;;;43;24.4;;;;;;;-6.6;80.5;98210;;;;
2022/12/14 08:23:44;;;;;;;34.6;19.3;;;;;;;-6.4;80.2;98200;;;;
2022/12/14 08:34:44;;;;;;;34.6;19.3;;;;;;;-6.5;79.1;98180;;;;
2022/12/14 08:45:44;;;;;;;34.6;19.3;;;;;;;-6.7;79.1;98180;;;;
2022/12/14 08:56:44;;;;;;;37.1;21;;;;;;;-6.6;79.7;98170;;;;
2022/12/14 09:06:44;;;;;;;37.1;21;;;;;;;-6.5;79.4;98170;;;;
2022/12/14 09:17:44;;;;;;;34.3;21.2;;;;;;;-6.2;79.1;98170;;;;
2022/12/14 09:28:44;;;;;;;34.3;21.2;;;;;;;-5.7;79.6;98150;;;;
2022/12/14 09:38:44;;;;;;;34.3;21.2;;;;;;;-5.7;78.8;98140;;;;
2022/12/14 09:48:44;;;;;;;41.4;23.2;;;;;;;-5.1;78.4;98130;;;;
2022/12/14 09:59:44;;;;;;;41.4;23.2;;;;;;;-4.3;78.4;98120;;;;
2022/12/14 10:09:44;;;;;;;41.4;23.2;;;;;;;-3.7;77.4;98110;;;;
2022/12/14 10:19:44;;;;;;;52.8;30;;;;;;;-4.1;75.4;98110;;;;
2022/12/14 10:29:45;;;;;;;52.8;30;;;;;;;-3.9;75.6;98080;;;;
2022/12/14 10:40:44;;;;;;;52.8;30;;;;;;;-3.4;75;98090;;;;
2022/12/14 10:50:44;;;;;;;55.5;30.6;;;;;;;-3.3;75.1;98080;;;;
2022/12/14 11:00:44;;;;;;;55.5;30.6;;;;;;;-3.4;74.8;98070;;;;
2022/12/14 11:11:45;;;;;;;55.5;30.6;;;;;;;-3.3;75.4;98060;;;;
2022/12/14 11:22:44;;;;;;;50.9;31.8;;;;;;;-3.4;74.7;98030;;;;
2022/12/14 11:32:44;;;;;;;50.9;31.8;;;;;;;-3.3;73.6;98020;;;;
2022/12/14 11:42:44;;;;;;;50.9;31.8;;;;;;;-2.9;74.8;98010;;;;
2022/12/14 11:53:44;;;;;;;51.2;30.5;;;;;;;-2.6;74.5;98000;;;;
2022/12/14 12:04:45;;;;;;;51.2;30.5;;;;;;;-2.8;74.5;97990;;;;
2022/12/14 12:14:46;;;;;;;51.2;30.5;;;;;;;-2.9;75.1;97980;;;;
2022/12/14 12:25:45;;;;;;;63.6;37.8;;;;;;;-3;76.1;97970;;;;
2022/12/14 12:35:44;;;;;;;63.6;37.8;;;;;;;-3.2;76.1;97940;;;;
2022/12/14 12:45:45;;;;;;;56.1;34.6;;;;;;;-3.5;77.5;97910;;;;
2022/12/14 12:55:44;;;;;;;56.1;34.6;;;;;;;-3.5;78.4;97900;;;;
2022/12/14 13:06:44;;;;;;;56.1;34.6;;;;;;;-3.6;78.9;97880;;;;
2022/12/14 13:16:44;;;;;;;59.6;35;;;;;;;-3.8;79.7;97860;;;;
2022/12/14 13:26:46;;;;;;;59.6;35;;;;;;;-3.9;80.6;97840;;;;
2022/12/14 13:37:44;;;;;;;59.6;35;;;;;;;-3.9;81.1;97820;;;;
2022/12/14 13:48:44;;;;;;;54.3;30.7;;;;;;;-3.8;81.9;97810;;;;
2022/12/14 13:58:45;;;;;;;54.3;30.7;;;;;;;-4.3;81.9;97770;;;;
2022/12/14 14:09:45;;;;;;;54.3;30.7;;;;;;;-4.3;82.1;97760;;;;
2022/12/14 14:20:45;;;;;;;60.4;33.4;;;;;;;-4.6;82.6;97740;;;;
2022/12/14 14:30:44;;;;;;;60.4;33.4;;;;;;;-4.7;83.1;97710;;;;
2022/12/14 14:41:44;;;;;;;60.4;33.4;;;;;;;-4.8;83.6;97720;;;;
2022/12/14 14:51:44;;;;;;;57.8;34.3;;;;;;;-4.8;83.5;97680;;;;
2022/12/14 15:01:45;;;;;;;57.8;34.3;;;;;;;-4.9;83.5;97650;;;;
2022/12/14 15:11:45;;;;;;;57.8;34.3;;;;;;;-5;83.9;97630;;;;
2022/12/14 15:22:45;;;;;;;63;37.7;;;;;;;-5.1;84.2;97600;;;;
2022/12/14 15:32:45;;;;;;;63;37.7;;;;;;;-5.2;84.7;97590;;;;
2022/12/14 15:43:45;;;;;;;63;37.7;;;;;;;-5.1;85.3;97570;;;;
2022/12/14 15:53:45;;;;;;;60.8;35.9;;;;;;;-5;85.4;97560;;;;
2022/12/14 16:04:45;;;;;;;60.8;35.9;;;;;;;-4.9;85.5;97540;;;;
2022/12/14 16:15:45;;;;;;;66.5;38.5;;;;;;;-4.9;85.7;97510;;;;
2022/12/14 16:25:45;;;;;;;66.5;38.5;;;;;;;-4.8;85.7;97520;;;;
2022/12/14 16:36:45;;;;;;;66.5;38.5;;;;;;;-4.8;85.9;97520;;;;
2022/12/14 16:46:45;;;;;;;54.6;29.9;;;;;;;-4.6;85.7;97520;;;;
2022/12/14 16:56:45;;;;;;;54.6;29.9;;;;;;;-4.7;85.6;97510;;;;
2022/12/14 17:07:45;;;;;;;54.6;29.9;;;;;;;-4.5;85.9;97510;;;;
2022/12/14 17:17:45;;;;;;;55.9;32.2;;;;;;;-4.5;85.7;97510;;;;
2022/12/14 17:28:47;;;;;;;55.9;32.2;;;;;;;-4.4;85.7;97520;;;;
2022/12/14 17:38:45;;;;;;;55.9;32.2;;;;;;;-4.4;85.7;97520;;;;
2022/12/14 17:48:45;;;;;;;59.2;35;;;;;;;-4.4;86;97510;;;;
2022/12/14 17:58:45;;;;;;;59.2;35;;;;;;;-4.4;86.5;97500;;;;
2022/12/14 18:08:45;;;;;;;59.2;35;;;;;;;-4.4;86.7;97480;;;;
2022/12/14 18:19:45;;;;;;;70.5;43;;;;;;;-4.3;86.8;97480;;;;
2022/12/14 18:29:45;;;;;;;70.5;43;;;;;;;-4.4;86.9;97460;;;;
2022/12/14 18:40:45;;;;;;;70.5;43;;;;;;;-4.3;87.2;97440;;;;
2022/12/14 18:51:45;;;;;;;68.3;38.6;;;;;;;-4.2;87.5;97430;;;;
2022/12/14 19:02:45;;;;;;;68.3;38.6;;;;;;;-4.1;87.3;97410;;;;
2022/12/14 19:13:45;;;;;;;68.3;40.8;;;;;;;-4.1;87.5;97390;;;;
2022/12/14 19:23:45;;;;;;;68.3;40.8;;;;;;;-4.1;87.8;97370;;;;
2022/12/14 19:34:45;;;;;;;68.3;40.8;;;;;;;-3.7;87.8;97350;;;;
2022/12/14 19:45:46;;;;;;;121.2;66.8;;;;;;;-3.5;87.6;97340;;;;
2022/12/14 19:56:45;;;;;;;121.2;66.8;;;;;;;-3.4;87.7;97360;;;;
2022/12/14 20:07:45;;;;;;;121.2;66.8;;;;;;;-3.3;87.6;97330;;;;
2022/12/14 20:17:45;;;;;;;80.4;47.7;;;;;;;-3.3;87.9;97330;;;;
2022/12/14 20:27:45;;;;;;;80.4;47.7;;;;;;;-3.1;87.7;97340;;;;
2022/12/14 20:37:45;;;;;;;80.4;47.7;;;;;;;-3.1;87.4;97340;;;;
2022/12/14 20:48:45;;;;;;;63.7;34.3;;;;;;;-3.1;87.6;97340;;;;
2022/12/14 20:58:46;;;;;;;63.7;34.3;;;;;;;-2.9;87.7;97350;;;;
2022/12/14 21:09:00;;;;;;;63.7;34.3;;;;;;;-2.9;87.9;97340;;;;
2022/12/14 21:18:45;;;;;;;48.7;26.7;;;;;;;-2.8;88;97340;;;;
2022/12/14 21:28:45;;;;;;;48.7;26.7;;;;;;;-2.6;87.9;97350;;;;
2022/12/14 21:39:45;;;;;;;48.7;26.7;;;;;;;-2.6;87.8;97360;;;;
2022/12/14 21:50:45;;;;;;;31.7;19.2;;;;;;;-2.3;87.7;97350;;;;
2022/12/14 22:00:45;;;;;;;31.7;19.2;;;;;;;-2.4;87.4;97370;;;;
2022/12/14 22:11:47;;;;;;;31.7;19.2;;;;;;;-2.5;87.5;97360;;;;
2022/12/14 22:22:45;;;;;;;37.5;21.4;;;;;;;-2.2;87.6;97370;;;;
2022/12/14 22:33:45;;;;;;;37.5;21.4;;;;;;;-2.1;87.3;97360;;;;
2022/12/14 22:44:45;;;;;;;45;24.6;;;;;;;-2;86.8;97360;;;;
2022/12/14 22:55:45;;;;;;;45;24.6;;;;;;;-2;86.6;97340;;;;
2022/12/14 23:05:45;;;;;;;45;24.6;;;;;;;-2;86.3;97350;;;;
